createdAt,value
2022-08-17T00:00:16.559Z,26.00
2022-08-17T00:03:24.968Z,25.90
2022-08-17T00:06:17.072Z,25.90
2022-08-17T00:08:53.965Z,25.90
2022-08-17T00:11:26.119Z,25.90
2022-08-17T00:13:57.787Z,25.90
2022-08-17T00:16:56.467Z,25.80
2022-08-17T00:19:26.425Z,25.80
2022-08-17T00:22:32.472Z,25.70
2022-08-17T00:24:44.742Z,25.70
2022-08-17T00:27:11.661Z,25.70
2022-08-17T00:29:38.613Z,25.70
2022-08-17T00:33:14.210Z,25.70
2022-08-17T00:34:52.617Z,25.60
2022-08-17T00:37:19.552Z,25.60
2022-08-17T00:39:46.531Z,25.60
2022-08-17T00:42:22.287Z,25.50
2022-08-17T00:44:49.202Z,25.50
2022-08-17T00:47:16.109Z,25.50
2022-08-17T00:49:43.018Z,25.40
2022-08-17T00:52:20.484Z,25.40
2022-08-17T00:54:52.332Z,25.40
2022-08-17T00:57:26.485Z,25.40
2022-08-17T01:00:02.330Z,25.30
2022-08-17T01:02:42.241Z,25.30
2022-08-17T01:05:25.403Z,25.20
2022-08-17T01:07:53.121Z,25.20
2022-08-17T01:10:59.690Z,25.20
2022-08-17T01:13:14.908Z,25.10
2022-08-17T01:15:47.616Z,25.10
2022-08-17T01:18:15.063Z,25.00
2022-08-17T01:20:49.085Z,25.00
2022-08-17T01:23:20.579Z,25.00
2022-08-17T01:25:51.793Z,24.90
2022-08-17T01:28:52.468Z,24.90
2022-08-17T01:31:09.157Z,24.80
2022-08-17T01:33:36.829Z,24.80
2022-08-17T01:36:07.140Z,24.80
2022-08-17T01:38:36.759Z,24.80
2022-08-17T01:41:12.208Z,24.70
2022-08-17T01:43:56.793Z,24.70
2022-08-17T01:46:29.233Z,24.70
2022-08-17T01:48:57.615Z,24.60
2022-08-17T01:51:32.921Z,24.60
2022-08-17T01:54:07.816Z,24.60
2022-08-17T01:56:38.967Z,24.60
2022-08-17T01:59:06.401Z,24.50
2022-08-17T02:01:35.138Z,24.50
2022-08-17T02:04:03.641Z,24.50
2022-08-17T02:06:45.384Z,24.40
2022-08-17T02:09:25.962Z,24.40
2022-08-17T02:11:56.399Z,24.40
2022-08-17T02:14:24.624Z,24.40
2022-08-17T02:16:52.896Z,24.40
2022-08-17T02:19:19.907Z,24.40
2022-08-17T02:21:51.435Z,24.30
2022-08-17T02:24:58.219Z,24.30
2022-08-17T02:27:13.569Z,24.30
2022-08-17T02:29:40.549Z,24.30
2022-08-17T02:32:25.432Z,24.30
2022-08-17T02:34:56.718Z,24.30
2022-08-17T02:37:24.309Z,24.30
2022-08-17T02:39:51.295Z,24.20
2022-08-17T02:42:18.487Z,24.20
2022-08-17T02:44:45.394Z,24.20
2022-08-17T02:47:12.538Z,24.20
2022-08-17T02:49:39.440Z,24.20
2022-08-17T02:52:07.860Z,24.20
2022-08-17T02:54:40.235Z,24.10
2022-08-17T02:57:09.855Z,24.10
2022-08-17T02:59:38.018Z,24.10
2022-08-17T03:02:10.434Z,24.10
2022-08-17T03:04:38.689Z,24.10
2022-08-17T03:07:06.669Z,24.10
2022-08-17T03:09:33.638Z,24.10
2022-08-17T03:12:11.040Z,24.10
2022-08-17T03:14:42.185Z,24.10
2022-08-17T03:17:11.233Z,24.10
2022-08-17T03:19:44.439Z,24.00
2022-08-17T03:22:37.337Z,24.00
2022-08-17T03:24:58.738Z,24.00
2022-08-17T03:27:25.684Z,24.00
2022-08-17T03:29:53.264Z,24.00
2022-08-17T03:32:20.722Z,23.90
2022-08-17T03:34:48.901Z,23.90
2022-08-17T03:37:16.354Z,23.90
2022-08-17T03:39:43.307Z,23.90
2022-08-17T03:42:32.396Z,23.90
2022-08-17T03:45:00.377Z,23.90
2022-08-17T03:47:46.032Z,23.90
2022-08-17T03:50:32.475Z,23.90
2022-08-17T03:53:18.989Z,23.80
2022-08-17T03:56:04.499Z,23.80
2022-08-17T03:58:31.416Z,23.80
2022-08-17T04:00:58.540Z,23.80
2022-08-17T04:03:25.536Z,23.80
2022-08-17T04:05:52.457Z,23.70
2022-08-17T04:08:19.366Z,23.70
2022-08-17T04:10:46.652Z,23.70
2022-08-17T04:13:14.128Z,23.70
2022-08-17T04:15:41.636Z,23.70
2022-08-17T04:18:10.926Z,23.70
2022-08-17T04:20:38.139Z,23.70
2022-08-17T04:23:18.099Z,23.80
2022-08-17T04:25:49.187Z,23.80
2022-08-17T04:28:17.996Z,23.80
2022-08-17T04:30:47.315Z,23.80
2022-08-17T04:33:21.863Z,23.80
2022-08-17T04:35:52.536Z,23.70
2022-08-17T04:38:24.386Z,23.70
2022-08-17T04:41:10.480Z,23.70
2022-08-17T04:43:39.610Z,23.70
2022-08-17T04:46:11.446Z,23.70
2022-08-17T04:48:48.075Z,23.70
2022-08-17T04:51:24.164Z,23.70
2022-08-17T04:53:55.837Z,23.70
2022-08-17T04:56:25.862Z,23.80
2022-08-17T04:58:56.687Z,23.80
2022-08-17T05:01:26.496Z,23.80
2022-08-17T05:03:58.939Z,23.90
2022-08-17T05:06:27.455Z,23.90
2022-08-17T05:08:54.924Z,24.00
2022-08-17T05:11:23.747Z,24.00
2022-08-17T05:13:50.704Z,24.00
2022-08-17T05:16:18.730Z,24.00
2022-08-17T05:18:46.414Z,24.00
2022-08-17T05:21:14.098Z,24.00
2022-08-17T05:23:43.323Z,23.90
2022-08-17T05:26:25.726Z,23.90
2022-08-17T05:28:59.508Z,23.90
2022-08-17T05:31:28.665Z,24.00
2022-08-17T05:33:55.804Z,24.00
2022-08-17T05:36:41.831Z,24.00
2022-08-17T05:39:15.930Z,24.10
2022-08-17T05:41:47.623Z,24.20
2022-08-17T05:44:15.061Z,24.30
2022-08-17T05:46:48.400Z,24.30
2022-08-17T05:49:18.907Z,24.40
2022-08-17T05:52:03.972Z,24.50
2022-08-17T05:54:58.497Z,24.60
2022-08-17T05:57:47.623Z,24.60
2022-08-17T06:00:31.286Z,24.80
2022-08-17T06:03:52.161Z,24.80
2022-08-17T06:06:38.480Z,24.90
2022-08-17T06:09:34.161Z,25.00
2022-08-17T06:12:34.952Z,25.10
2022-08-17T06:15:38.095Z,25.20
2022-08-17T06:18:08.938Z,25.20
2022-08-17T06:20:51.591Z,25.30
2022-08-17T06:23:34.028Z,25.40
2022-08-17T06:26:09.028Z,25.50
2022-08-17T06:28:42.461Z,25.60
2022-08-17T06:31:22.232Z,25.70
2022-08-17T06:33:50.180Z,25.70
2022-08-17T06:37:05.590Z,25.90
2022-08-17T06:40:00.614Z,26.00
2022-08-17T06:43:07.436Z,26.00
2022-08-17T06:45:49.538Z,26.10
2022-08-17T06:48:35.156Z,26.30
2022-08-17T06:51:22.184Z,26.30
2022-08-17T06:54:05.164Z,26.40
2022-08-17T06:57:14.555Z,26.50
2022-08-17T06:59:54.858Z,26.60
2022-08-17T07:03:02.646Z,26.70
2022-08-17T07:05:42.335Z,26.80
2022-08-17T07:08:37.987Z,27.00
2022-08-17T07:11:19.159Z,27.10
2022-08-17T07:14:25.358Z,27.20
2022-08-17T07:16:56.218Z,27.40
2022-08-17T07:19:27.689Z,27.50
2022-08-17T07:22:59.338Z,27.60
2022-08-17T07:25:28.574Z,27.70
2022-08-17T07:28:00.219Z,27.80
2022-08-17T07:30:47.370Z,27.90
2022-08-17T07:33:25.668Z,28.00
2022-08-17T07:35:53.541Z,28.10
2022-08-17T07:38:30.315Z,28.20
2022-08-17T07:40:57.809Z,28.30
2022-08-17T07:43:39.515Z,28.40
2022-08-17T07:46:51.047Z,28.50
2022-08-17T07:49:33.372Z,28.60
2022-08-17T07:52:24.179Z,28.70
2022-08-17T07:54:56.617Z,28.80
2022-08-17T07:57:36.107Z,29.00
2022-08-17T08:00:12.690Z,29.10
2022-08-17T08:02:48.066Z,29.20
2022-08-17T08:05:30.857Z,29.30
2022-08-17T08:08:34.043Z,29.40
2022-08-17T08:11:15.360Z,29.60
2022-08-17T08:13:45.518Z,29.60
2022-08-17T08:16:26.984Z,29.70
2022-08-17T08:19:02.519Z,29.70
2022-08-17T08:21:47.152Z,29.80
2022-08-17T08:24:48.769Z,29.90
2022-08-17T08:27:29.330Z,30.00
2022-08-17T08:30:14.101Z,30.00
2022-08-17T08:33:21.705Z,30.20
2022-08-17T08:37:15.991Z,30.20
2022-08-17T08:39:21.357Z,30.20
2022-08-17T08:42:03.441Z,30.30
2022-08-17T08:45:00.884Z,30.40
2022-08-17T08:47:53.853Z,30.40
2022-08-17T08:50:38.126Z,30.50
2022-08-17T08:53:36.175Z,30.60
2022-08-17T08:56:25.202Z,30.60
2022-08-17T08:59:04.866Z,30.80
2022-08-17T09:02:01.401Z,30.80
2022-08-17T09:05:14.201Z,31.00
2022-08-17T09:08:06.192Z,31.00
2022-08-17T09:11:02.373Z,31.10
2022-08-17T09:14:21.145Z,31.10
2022-08-17T09:17:05.079Z,31.30
2022-08-17T09:19:58.223Z,31.40
2022-08-17T09:22:43.768Z,31.50
2022-08-17T09:25:28.898Z,31.60
2022-08-17T09:28:03.737Z,31.70
2022-08-17T09:30:45.490Z,31.70
2022-08-17T09:33:22.781Z,31.80
2022-08-17T09:36:23.745Z,31.80
2022-08-17T09:39:15.946Z,31.80
2022-08-17T09:41:55.821Z,31.90
2022-08-17T09:45:04.025Z,31.90
2022-08-17T09:47:49.584Z,32.00
2022-08-17T09:50:55.506Z,32.00
2022-08-17T09:53:32.040Z,32.10
2022-08-17T09:56:45.980Z,32.10
2022-08-17T09:59:58.372Z,32.30
2022-08-17T10:03:16.137Z,32.30
2022-08-17T10:06:13.352Z,32.50
2022-08-17T10:09:08.756Z,32.60
2022-08-17T10:12:17.057Z,32.60
2022-08-17T10:15:13.503Z,32.70
2022-08-17T10:18:08.097Z,32.80
2022-08-17T10:21:25.282Z,32.90
2022-08-17T10:24:40.346Z,32.90
2022-08-17T10:27:42.807Z,33.10
2022-08-17T10:30:11.321Z,33.20
2022-08-17T10:32:55.141Z,33.20
2022-08-17T10:35:46.069Z,33.20
2022-08-17T10:38:39.065Z,33.30
2022-08-17T10:41:32.576Z,33.30
2022-08-17T10:44:38.631Z,33.40
2022-08-17T10:47:17.133Z,33.50
2022-08-17T10:49:49.484Z,33.50
2022-08-17T10:52:22.819Z,33.60
2022-08-17T10:54:51.817Z,33.60
2022-08-17T10:57:34.028Z,33.70
2022-08-17T11:00:10.374Z,33.70
2022-08-17T11:02:49.502Z,33.70
2022-08-17T11:05:46.619Z,33.80
2022-08-17T11:09:22.509Z,33.80
2022-08-17T11:12:42.338Z,33.90
2022-08-17T11:15:38.771Z,33.90
2022-08-17T11:18:42.272Z,34.00
2022-08-17T11:21:38.503Z,34.00
2022-08-17T11:24:24.134Z,34.10
2022-08-17T11:27:26.463Z,34.20
2022-08-17T11:30:02.522Z,34.30
2022-08-17T11:32:54.413Z,34.40
2022-08-17T11:35:21.710Z,34.50
2022-08-17T11:38:26.311Z,34.50
2022-08-17T11:41:30.416Z,34.60
2022-08-17T11:44:37.585Z,34.80
2022-08-17T11:47:36.679Z,34.80
2022-08-17T11:50:55.480Z,34.80
2022-08-17T11:53:37.545Z,34.90
2022-08-17T11:56:49.089Z,34.90
2022-08-17T11:59:35.830Z,34.90
2022-08-17T12:02:19.858Z,34.80
2022-08-17T12:05:27.409Z,34.80
2022-08-17T12:08:17.678Z,34.80
2022-08-17T12:10:58.507Z,34.70
2022-08-17T12:13:30.548Z,34.60
2022-08-17T12:16:07.151Z,34.60
2022-08-17T12:18:39.446Z,34.70
2022-08-17T12:21:51.219Z,34.70
2022-08-17T12:24:35.375Z,34.80
2022-08-17T12:27:06.298Z,34.80
2022-08-17T12:29:39.097Z,34.80
2022-08-17T12:32:07.315Z,34.80
2022-08-17T12:34:42.708Z,34.80
2022-08-17T12:37:27.721Z,34.80
2022-08-17T12:40:17.954Z,34.90
2022-08-17T12:42:58.283Z,34.90
2022-08-17T12:45:32.449Z,34.90
2022-08-17T12:48:07.862Z,34.80
2022-08-17T12:50:42.441Z,34.80
2022-08-17T12:53:16.108Z,34.80
2022-08-17T12:55:44.369Z,34.70
2022-08-17T12:58:21.760Z,34.60
2022-08-17T13:00:59.383Z,34.60
2022-08-17T13:03:36.373Z,34.50
2022-08-17T13:06:09.462Z,34.50
2022-08-17T13:08:47.937Z,34.50
2022-08-17T13:11:14.701Z,34.50
2022-08-17T13:13:46.300Z,34.40
2022-08-17T13:16:14.192Z,34.30
2022-08-17T13:18:48.660Z,34.30
2022-08-17T13:21:28.128Z,34.20
2022-08-17T13:24:01.167Z,34.20
2022-08-17T13:26:46.687Z,34.10
2022-08-17T13:29:37.249Z,34.10
2022-08-17T13:32:07.927Z,34.20
2022-08-17T13:35:06.539Z,34.20
2022-08-17T13:37:36.059Z,34.20
2022-08-17T13:40:22.815Z,34.30
2022-08-17T13:42:54.143Z,34.40
2022-08-17T13:45:35.563Z,34.40
2022-08-17T13:48:12.349Z,34.40
2022-08-17T13:50:59.496Z,34.50
2022-08-17T13:53:36.445Z,34.50
2022-08-17T13:56:37.815Z,34.50
2022-08-17T13:59:11.756Z,34.50
2022-08-17T14:01:53.339Z,34.50
2022-08-17T14:04:32.105Z,34.50
2022-08-17T14:07:04.857Z,34.50
2022-08-17T14:10:05.132Z,34.50
2022-08-17T14:12:35.422Z,34.50
2022-08-17T14:15:03.094Z,34.50
2022-08-17T14:17:34.970Z,34.40
2022-08-17T14:20:12.094Z,34.40
2022-08-17T14:22:45.497Z,34.20
2022-08-17T14:25:25.335Z,34.20
2022-08-17T14:27:53.970Z,34.20
2022-08-17T14:30:29.102Z,34.10
2022-08-17T14:32:58.030Z,34.00
2022-08-17T14:35:27.481Z,34.00
2022-08-17T14:37:54.626Z,33.90
2022-08-17T14:40:24.390Z,33.90
2022-08-17T14:42:53.147Z,33.90
2022-08-17T14:45:31.511Z,33.90
2022-08-17T14:48:04.023Z,33.90
2022-08-17T14:50:31.841Z,33.80
2022-08-17T14:52:59.247Z,33.90
2022-08-17T14:55:29.148Z,33.80
2022-08-17T14:57:56.046Z,33.80
2022-08-17T15:00:23.183Z,33.80
2022-08-17T15:02:58.278Z,33.90
2022-08-17T15:05:31.475Z,33.90
2022-08-17T15:08:00.890Z,33.90
2022-08-17T15:10:29.168Z,33.90
2022-08-17T15:12:56.822Z,33.90
2022-08-17T15:15:24.090Z,33.80
2022-08-17T15:17:51.590Z,33.80
2022-08-17T15:20:23.757Z,33.80
2022-08-17T15:22:51.090Z,33.80
2022-08-17T15:25:19.405Z,33.80
2022-08-17T15:27:47.397Z,33.80
2022-08-17T15:30:15.482Z,33.70
2022-08-17T15:32:46.852Z,33.70
2022-08-17T15:35:28.222Z,33.70
2022-08-17T15:38:09.747Z,33.70
2022-08-17T15:40:46.110Z,33.70
2022-08-17T15:43:27.041Z,33.70
2022-08-17T15:46:11.920Z,33.70
2022-08-17T15:48:41.831Z,33.60
2022-08-17T15:51:13.960Z,33.60
2022-08-17T15:53:44.658Z,33.60
2022-08-17T15:56:15.046Z,33.50
2022-08-17T15:58:43.865Z,33.40
2022-08-17T16:01:12.451Z,33.40
2022-08-17T16:03:58.374Z,33.30
2022-08-17T16:06:30.798Z,33.30
2022-08-17T16:08:59.341Z,33.30
2022-08-17T16:11:26.474Z,33.20
2022-08-17T16:13:54.735Z,33.20
2022-08-17T16:16:23.683Z,33.20
2022-08-17T16:18:53.599Z,33.20
2022-08-17T16:21:25.726Z,33.00
2022-08-17T16:24:02.317Z,33.10
2022-08-17T16:26:31.813Z,33.00
2022-08-17T16:29:01.818Z,33.00
2022-08-17T16:31:29.346Z,32.90
2022-08-17T16:34:16.257Z,32.80
2022-08-17T16:36:54.905Z,32.70
2022-08-17T16:39:24.254Z,32.80
2022-08-17T16:41:51.173Z,32.60
2022-08-17T16:44:21.340Z,32.60
2022-08-17T16:46:50.187Z,32.50
2022-08-17T16:49:35.612Z,32.40
2022-08-17T16:52:07.252Z,32.30
2022-08-17T16:54:35.251Z,32.30
2022-08-17T16:57:04.910Z,32.20
2022-08-17T16:59:39.653Z,32.20
2022-08-17T17:02:11.302Z,32.10
2022-08-17T17:04:46.202Z,32.00
2022-08-17T17:07:42.917Z,32.00
2022-08-17T17:10:15.441Z,31.90
2022-08-17T17:13:02.119Z,31.90
2022-08-17T17:15:47.503Z,31.70
2022-08-17T17:18:15.948Z,31.80
2022-08-17T17:20:55.521Z,31.70
2022-08-17T17:23:38.149Z,31.60
2022-08-17T17:26:30.323Z,31.60
2022-08-17T17:29:47.635Z,31.50
2022-08-17T17:32:32.143Z,31.50
2022-08-17T17:35:16.908Z,31.40
2022-08-17T17:37:45.404Z,31.40
2022-08-17T17:40:25.065Z,31.20
2022-08-17T17:42:55.242Z,31.20
2022-08-17T17:45:31.836Z,31.10
2022-08-17T17:47:58.780Z,31.10
2022-08-17T17:50:37.388Z,31.00
2022-08-17T17:53:35.180Z,30.90
2022-08-17T17:56:44.090Z,30.90
2022-08-17T17:59:29.710Z,30.80
2022-08-17T18:02:52.949Z,30.70
2022-08-17T18:05:37.109Z,30.70
2022-08-17T18:08:34.730Z,30.60
2022-08-17T18:11:59.059Z,30.50
2022-08-17T18:14:37.566Z,30.50
2022-08-17T18:17:06.009Z,30.40
2022-08-17T18:19:33.162Z,30.30
2022-08-17T18:22:06.866Z,30.30
2022-08-17T18:24:40.511Z,30.20
2022-08-17T18:27:37.523Z,30.20
2022-08-17T18:30:27.526Z,30.10
2022-08-17T18:32:54.434Z,30.10
2022-08-17T18:35:28.811Z,30.00
2022-08-17T18:38:20.426Z,30.00
2022-08-17T18:41:20.655Z,29.90
2022-08-17T18:44:06.035Z,29.90
2022-08-17T18:46:36.746Z,29.80
2022-08-17T18:49:24.310Z,29.80
2022-08-17T18:52:23.942Z,29.70
2022-08-17T18:55:13.616Z,29.70
2022-08-17T18:57:47.418Z,29.60
2022-08-17T19:00:32.584Z,29.50
2022-08-17T19:03:18.365Z,29.50
2022-08-17T19:05:51.960Z,29.40
2022-08-17T19:08:31.119Z,29.40
2022-08-17T19:11:08.153Z,29.30
2022-08-17T19:13:53.794Z,29.30
2022-08-17T19:16:31.120Z,29.20
2022-08-17T19:19:10.604Z,29.20
2022-08-17T19:21:55.926Z,29.10
2022-08-17T19:24:27.083Z,29.10
2022-08-17T19:27:06.283Z,29.00
2022-08-17T19:30:08.431Z,29.00
2022-08-17T19:32:36.651Z,29.00
2022-08-17T19:35:06.734Z,28.90
2022-08-17T19:38:06.276Z,28.90
2022-08-17T19:41:01.906Z,28.90
2022-08-17T19:44:12.603Z,28.80
2022-08-17T19:46:56.280Z,28.80
2022-08-17T19:50:08.221Z,28.80
2022-08-17T19:53:07.557Z,28.70
2022-08-17T19:56:16.703Z,28.70
2022-08-17T19:59:03.795Z,28.70
2022-08-17T20:01:38.762Z,28.60
2022-08-17T20:04:31.869Z,28.60
2022-08-17T20:07:24.895Z,28.50
2022-08-17T20:09:58.778Z,28.50
2022-08-17T20:12:35.820Z,28.40
2022-08-17T20:15:30.037Z,28.40
2022-08-17T20:18:00.339Z,28.30
2022-08-17T20:21:00.506Z,28.30
2022-08-17T20:23:41.035Z,28.20
2022-08-17T20:26:39.040Z,28.20
2022-08-17T20:29:15.052Z,28.20
2022-08-17T20:31:56.622Z,28.10
2022-08-17T20:34:33.434Z,28.10
2022-08-17T20:37:29.264Z,28.00
2022-08-17T20:39:56.059Z,28.00
2022-08-17T20:42:22.881Z,28.00
2022-08-17T20:45:02.833Z,27.90
2022-08-17T20:48:00.785Z,27.90
2022-08-17T20:50:37.876Z,27.90
2022-08-17T20:53:11.251Z,27.90
2022-08-17T20:55:52.425Z,27.80
2022-08-17T20:58:30.062Z,27.80
2022-08-17T21:00:58.902Z,27.80
2022-08-17T21:03:28.672Z,27.70
2022-08-17T21:06:19.012Z,27.70
2022-08-17T21:09:29.792Z,27.60
2022-08-17T21:12:04.674Z,27.60
2022-08-17T21:15:04.229Z,27.50
2022-08-17T21:17:39.692Z,27.40
2022-08-17T21:20:32.587Z,27.30
2022-08-17T21:23:26.209Z,27.30
2022-08-17T21:26:17.466Z,27.30
2022-08-17T21:29:00.819Z,27.20
2022-08-17T21:31:40.644Z,27.20
2022-08-17T21:34:16.666Z,27.10
2022-08-17T21:36:45.414Z,27.10
2022-08-17T21:39:21.450Z,27.10
2022-08-17T21:41:56.291Z,27.00
2022-08-17T21:44:37.718Z,27.00
2022-08-17T21:47:27.505Z,27.00
2022-08-17T21:49:59.550Z,27.00
2022-08-17T21:52:27.659Z,26.90
2022-08-17T21:55:02.247Z,26.90
2022-08-17T21:57:30.204Z,26.90
2022-08-17T22:00:01.384Z,26.80
2022-08-17T22:02:37.757Z,26.80
2022-08-17T22:05:12.186Z,26.80
2022-08-17T22:07:50.725Z,26.80
2022-08-17T22:10:41.906Z,26.70
2022-08-17T22:13:19.929Z,26.70
2022-08-17T22:16:15.343Z,26.60
2022-08-17T22:18:44.686Z,26.60
2022-08-17T22:21:11.588Z,26.50
2022-08-17T22:24:02.503Z,26.50
2022-08-17T22:27:11.434Z,26.40
2022-08-17T22:29:59.437Z,26.40
2022-08-17T22:32:45.905Z,26.40
2022-08-17T22:35:36.985Z,26.30
2022-08-17T22:38:19.119Z,26.30
2022-08-17T22:40:56.811Z,26.30
2022-08-17T22:43:28.524Z,26.30
2022-08-17T22:45:59.310Z,26.30
2022-08-17T22:48:29.580Z,26.30
2022-08-17T22:51:14.724Z,26.20
2022-08-17T22:54:21.713Z,26.20
2022-08-17T22:57:21.618Z,26.20
2022-08-17T22:59:55.052Z,26.10
2022-08-17T23:02:32.105Z,26.10
2022-08-17T23:05:13.857Z,26.00
2022-08-17T23:07:42.523Z,26.00
2022-08-17T23:10:12.035Z,26.00
2022-08-17T23:12:39.850Z,25.90
2022-08-17T23:15:15.437Z,25.90
2022-08-17T23:17:42.876Z,25.80
2022-08-17T23:20:17.612Z,25.80
2022-08-17T23:22:51.871Z,25.80
2022-08-17T23:25:33.448Z,25.70
2022-08-17T23:28:03.797Z,25.70
2022-08-17T23:30:34.065Z,25.60
2022-08-17T23:33:07.793Z,25.60
2022-08-17T23:35:39.317Z,25.50
2022-08-17T23:38:09.298Z,25.50
2022-08-17T23:40:37.749Z,25.50
2022-08-17T23:43:24.471Z,25.50
2022-08-17T23:45:58.499Z,25.40
2022-08-17T23:48:35.399Z,25.40
2022-08-17T23:51:14.570Z,25.40
2022-08-17T23:53:46.389Z,25.50
2022-08-17T23:56:14.147Z,25.50
2022-08-17T23:58:43.267Z,25.50
